sensor_id;sensor_type;location;lat;lon;timestamp;pressure;altitude;pressure_sealevel;temperature;humidity
74524;BME280;63074;44.696;10.358;2023-11-22T00:01:59;99517.06;;;17.88;100.00
74524;BME280;63074;44.696;10.358;2023-11-22T00:04:25;99506.38;;;18.25;100.00
74524;BME280;63074;44.696;10.358;2023-11-22T00:06:51;99507.97;;;18.12;100.00
74524;BME280;63074;44.696;10.358;2023-11-22T00:09:17;99511.25;;;17.76;100.00
74524;BME280;63074;44.696;10.358;2023-11-22T00:11:48;99505.31;;;17.74;100.00
74524;BME280;63074;44.696;10.358;2023-11-22T00:14:15;99512.84;;;17.40;100.00
74524;BME280;63074;44.696;10.358;2023-11-22T00:16:41;99506.28;;;17.03;100.00
74524;BME280;63074;44.696;10.358;2023-11-22T00:19:09;99506.97;;;17.33;100.00
74524;BME280;63074;44.696;10.358;2023-11-22T00:21:35;99505.22;;;17.23;100.00
74524;BME280;63074;44.696;10.358;2023-11-22T00:24:01;99500.81;;;17.46;100.00
74524;BME280;63074;44.696;10.358;2023-11-22T00:26:27;99508.72;;;17.42;100.00
74524;BME280;63074;44.696;10.358;2023-11-22T00:28:54;99504.50;;;17.55;100.00
74524;BME280;63074;44.696;10.358;2023-11-22T00:31:20;99505.06;;;17.52;100.00
74524;BME280;63074;44.696;10.358;2023-11-22T00:33:46;99506.38;;;17.17;100.00
74524;BME280;63074;44.696;10.358;2023-11-22T00:36:12;99510.56;;;17.28;100.00
74524;BME280;63074;44.696;10.358;2023-11-22T00:38:39;99511.00;;;17.35;100.00
74524;BME280;63074;44.696;10.358;2023-11-22T00:41:05;99511.63;;;17.32;100.00
74524;BME280;63074;44.696;10.358;2023-11-22T00:43:33;99509.13;;;16.93;100.00
74524;BME280;63074;44.696;10.358;2023-11-22T00:45:59;99505.13;;;16.85;100.00
74524;BME280;63074;44.696;10.358;2023-11-22T00:48:27;99516.47;;;17.11;100.00
74524;BME280;63074;44.696;10.358;2023-11-22T00:50:53;99519.66;;;17.37;100.00
74524;BME280;63074;44.696;10.358;2023-11-22T00:53:20;99516.53;;;16.59;100.00
74524;BME280;63074;44.696;10.358;2023-11-22T00:55:46;99520.06;;;16.59;100.00
74524;BME280;63074;44.696;10.358;2023-11-22T00:58:12;99521.72;;;16.84;100.00
74524;BME280;63074;44.696;10.358;2023-11-22T01:00:38;99521.78;;;17.03;100.00
74524;BME280;63074;44.696;10.358;2023-11-22T01:03:05;99529.59;;;17.28;100.00
74524;BME280;63074;44.696;10.358;2023-11-22T01:05:31;99531.94;;;16.68;100.00
74524;BME280;63074;44.696;10.358;2023-11-22T01:07:57;99536.94;;;17.04;100.00
74524;BME280;63074;44.696;10.358;2023-11-22T01:10:23;99534.13;;;16.37;100.00
74524;BME280;63074;44.696;10.358;2023-11-22T01:12:49;99532.09;;;16.48;100.00
74524;BME280;63074;44.696;10.358;2023-11-22T01:15:16;99527.63;;;16.62;100.00
74524;BME280;63074;44.696;10.358;2023-11-22T01:17:42;99532.69;;;16.74;100.00
74524;BME280;63074;44.696;10.358;2023-11-22T01:20:09;99519.13;;;16.45;100.00
74524;BME280;63074;44.696;10.358;2023-11-22T01:22:37;99525.13;;;16.42;100.00
74524;BME280;63074;44.696;10.358;2023-11-22T01:25:04;99521.03;;;16.44;100.00
74524;BME280;63074;44.696;10.358;2023-11-22T01:27:31;99527.28;;;16.74;100.00
74524;BME280;63074;44.696;10.358;2023-11-22T01:29:57;99529.38;;;16.19;100.00
74524;BME280;63074;44.696;10.358;2023-11-22T01:32:23;99531.13;;;16.68;100.00
74524;BME280;63074;44.696;10.358;2023-11-22T01:34:50;99525.78;;;16.58;100.00
74524;BME280;63074;44.696;10.358;2023-11-22T01:37:16;99531.66;;;16.70;100.00
74524;BME280;63074;44.696;10.358;2023-11-22T01:39:42;99523.81;;;16.63;100.00
74524;BME280;63074;44.696;10.358;2023-11-22T01:42:09;99512.25;;;16.52;100.00
74524;BME280;63074;44.696;10.358;2023-11-22T01:44:35;99515.72;;;16.58;100.00
74524;BME280;63074;44.696;10.358;2023-11-22T01:47:02;99516.63;;;16.48;100.00
74524;BME280;63074;44.696;10.358;2023-11-22T01:49:29;99509.53;;;16.29;100.00
74524;BME280;63074;44.696;10.358;2023-11-22T01:51:56;99513.19;;;16.43;100.00
74524;BME280;63074;44.696;10.358;2023-11-22T01:54:22;99519.22;;;16.35;100.00
74524;BME280;63074;44.696;10.358;2023-11-22T01:56:49;99513.91;;;16.77;100.00
74524;BME280;63074;44.696;10.358;2023-11-22T01:59:16;99509.59;;;16.47;100.00
74524;BME280;63074;44.696;10.358;2023-11-22T02:01:43;99511.94;;;16.83;100.00
74524;BME280;63074;44.696;10.358;2023-11-22T02:04:12;99519.69;;;16.95;100.00
74524;BME280;63074;44.696;10.358;2023-11-22T02:06:38;99517.53;;;17.15;100.00
74524;BME280;63074;44.696;10.358;2023-11-22T02:09:05;99516.16;;;16.94;100.00
74524;BME280;63074;44.696;10.358;2023-11-22T02:11:31;99506.66;;;16.44;100.00
74524;BME280;63074;44.696;10.358;2023-11-22T02:13:57;99514.81;;;17.15;100.00
74524;BME280;63074;44.696;10.358;2023-11-22T02:16:23;99514.41;;;16.55;100.00
74524;BME280;63074;44.696;10.358;2023-11-22T02:18:50;99517.53;;;16.44;100.00
74524;BME280;63074;44.696;10.358;2023-11-22T02:21:19;99513.19;;;17.14;100.00
74524;BME280;63074;44.696;10.358;2023-11-22T02:23:47;99511.03;;;16.93;100.00
74524;BME280;63074;44.696;10.358;2023-11-22T02:26:13;99502.69;;;16.60;100.00
74524;BME280;63074;44.696;10.358;2023-11-22T02:28:44;99519.94;;;16.98;100.00
74524;BME280;63074;44.696;10.358;2023-11-22T02:31:10;99517.91;;;16.85;100.00
74524;BME280;63074;44.696;10.358;2023-11-22T02:33:36;99511.13;;;17.06;100.00
74524;BME280;63074;44.696;10.358;2023-11-22T02:36:02;99513.09;;;16.77;100.00
74524;BME280;63074;44.696;10.358;2023-11-22T02:38:29;99509.66;;;16.95;100.00
74524;BME280;63074;44.696;10.358;2023-11-22T02:40:55;99513.47;;;16.41;100.00
74524;BME280;63074;44.696;10.358;2023-11-22T02:43:21;99513.53;;;16.36;100.00
74524;BME280;63074;44.696;10.358;2023-11-22T02:45:49;99517.91;;;16.85;100.00
74524;BME280;63074;44.696;10.358;2023-11-22T02:48:15;99509.66;;;16.71;100.00
74524;BME280;63074;44.696;10.358;2023-11-22T02:50:41;99512.06;;;16.97;100.00
74524;BME280;63074;44.696;10.358;2023-11-22T02:53:09;99515.38;;;16.94;100.00
74524;BME280;63074;44.696;10.358;2023-11-22T02:55:35;99508.09;;;16.36;100.00
74524;BME280;63074;44.696;10.358;2023-11-22T02:58:02;99509.72;;;16.37;100.00
74524;BME280;63074;44.696;10.358;2023-11-22T03:00:28;99506.78;;;16.58;100.00
74524;BME280;63074;44.696;10.358;2023-11-22T03:02:55;99513.91;;;16.77;100.00
74524;BME280;63074;44.696;10.358;2023-11-22T03:05:22;99511.09;;;17.49;100.00
74524;BME280;63074;44.696;10.358;2023-11-22T03:07:50;99511.22;;;17.95;100.00
74524;BME280;63074;44.696;10.358;2023-11-22T03:10:17;99514.72;;;18.14;100.00
74524;BME280;63074;44.696;10.358;2023-11-22T03:12:44;99512.72;;;17.87;100.00
74524;BME280;63074;44.696;10.358;2023-11-22T03:15:10;99518.41;;;16.87;100.00
74524;BME280;63074;44.696;10.358;2023-11-22T03:17:37;99517.59;;;16.86;100.00
74524;BME280;63074;44.696;10.358;2023-11-22T03:20:07;99513.56;;;16.84;100.00
74524;BME280;63074;44.696;10.358;2023-11-22T03:22:36;99512.19;;;16.34;100.00
74524;BME280;63074;44.696;10.358;2023-11-22T03:25:03;99523.31;;;15.64;100.00
74524;BME280;63074;44.696;10.358;2023-11-22T03:27:30;99518.19;;;16.54;100.00
74524;BME280;63074;44.696;10.358;2023-11-22T03:29:56;99523.25;;;17.33;100.00
74524;BME280;63074;44.696;10.358;2023-11-22T03:32:22;99523.38;;;16.80;100.00
74524;BME280;63074;44.696;10.358;2023-11-22T03:34:49;99515.00;;;16.76;100.00
74524;BME280;63074;44.696;10.358;2023-11-22T03:37:15;99527.31;;;16.93;100.00
74524;BME280;63074;44.696;10.358;2023-11-22T03:39:41;99529.78;;;16.65;100.00
74524;BME280;63074;44.696;10.358;2023-11-22T03:42:17;99525.38;;;17.17;100.00
74524;BME280;63074;44.696;10.358;2023-11-22T03:44:43;99529.81;;;17.32;100.00
74524;BME280;63074;44.696;10.358;2023-11-22T03:47:10;99528.75;;;16.85;100.00
74524;BME280;63074;44.696;10.358;2023-11-22T03:49:40;99524.81;;;17.20;100.00
74524;BME280;63074;44.696;10.358;2023-11-22T03:52:06;99520.59;;;16.85;100.00
74524;BME280;63074;44.696;10.358;2023-11-22T03:54:32;99527.38;;;16.35;100.00
74524;BME280;63074;44.696;10.358;2023-11-22T03:56:58;99530.84;;;16.40;100.00
74524;BME280;63074;44.696;10.358;2023-11-22T03:59:25;99530.16;;;16.53;100.00
74524;BME280;63074;44.696;10.358;2023-11-22T04:01:51;99525.56;;;16.49;100.00
74524;BME280;63074;44.696;10.358;2023-11-22T04:04:17;99540.00;;;13.71;100.00
74524;BME280;63074;44.696;10.358;2023-11-22T04:06:43;99545.34;;;13.41;100.00
74524;BME280;63074;44.696;10.358;2023-11-22T04:09:09;99540.13;;;16.87;100.00
74524;BME280;63074;44.696;10.358;2023-11-22T04:11:38;99532.53;;;16.60;100.00
74524;BME280;63074;44.696;10.358;2023-11-22T04:14:05;99541.16;;;16.91;100.00
74524;BME280;63074;44.696;10.358;2023-11-22T04:16:31;99539.03;;;16.59;100.00
74524;BME280;63074;44.696;10.358;2023-11-22T04:18:57;99534.69;;;16.34;100.00
74524;BME280;63074;44.696;10.358;2023-11-22T04:21:24;99532.53;;;16.31;100.00
74524;BME280;63074;44.696;10.358;2023-11-22T04:23:50;99536.34;;;16.30;100.00
74524;BME280;63074;44.696;10.358;2023-11-22T04:26:16;99536.09;;;16.27;100.00
74524;BME280;63074;44.696;10.358;2023-11-22T04:28:42;99530.44;;;16.23;100.00
74524;BME280;63074;44.696;10.358;2023-11-22T04:31:08;99542.44;;;15.83;100.00
74524;BME280;63074;44.696;10.358;2023-11-22T04:33:35;99549.06;;;16.01;100.00
74524;BME280;63074;44.696;10.358;2023-11-22T04:36:02;99546.88;;;16.37;100.00
74524;BME280;63074;44.696;10.358;2023-11-22T04:38:28;99549.31;;;16.04;100.00
74524;BME280;63074;44.696;10.358;2023-11-22T04:40:54;99548.31;;;16.24;100.00
74524;BME280;63074;44.696;10.358;2023-11-22T04:43:20;99550.50;;;16.51;100.00
74524;BME280;63074;44.696;10.358;2023-11-22T04:45:47;99555.00;;;17.13;100.00
74524;BME280;63074;44.696;10.358;2023-11-22T04:48:13;99560.03;;;16.77;100.00
74524;BME280;63074;44.696;10.358;2023-11-22T04:50:41;99556.88;;;16.41;100.00
74524;BME280;63074;44.696;10.358;2023-11-22T04:53:09;99560.91;;;16.97;100.00
74524;BME280;63074;44.696;10.358;2023-11-22T04:55:36;99564.78;;;16.62;100.00
74524;BME280;63074;44.696;10.358;2023-11-22T04:58:02;99575.16;;;16.83;100.00
74524;BME280;63074;44.696;10.358;2023-11-22T05:00:29;99577.59;;;16.56;100.00
74524;BME280;63074;44.696;10.358;2023-11-22T05:02:55;99585.84;;;16.75;100.00
74524;BME280;63074;44.696;10.358;2023-11-22T05:05:21;99590.06;;;16.23;100.00
74524;BME280;63074;44.696;10.358;2023-11-22T05:07:47;99586.75;;;15.97;100.00
74524;BME280;63074;44.696;10.358;2023-11-22T05:10:14;99584.66;;;16.23;100.00
74524;BME280;63074;44.696;10.358;2023-11-22T05:12:40;99587.00;;;16.35;100.00
74524;BME280;63074;44.696;10.358;2023-11-22T05:15:07;99583.81;;;16.28;100.00
74524;BME280;63074;44.696;10.358;2023-11-22T05:17:34;99585.19;;;16.54;100.00
74524;BME280;63074;44.696;10.358;2023-11-22T05:20:01;99584.22;;;16.45;100.00
74524;BME280;63074;44.696;10.358;2023-11-22T05:22:28;99589.66;;;16.11;100.00
74524;BME280;63074;44.696;10.358;2023-11-22T05:24:54;99593.75;;;16.03;100.00
74524;BME280;63074;44.696;10.358;2023-11-22T05:27:20;99596.72;;;16.07;100.00
74524;BME280;63074;44.696;10.358;2023-11-22T05:29:46;99599.47;;;15.52;100.00
74524;BME280;63074;44.696;10.358;2023-11-22T05:32:13;99599.44;;;15.63;100.00
74524;BME280;63074;44.696;10.358;2023-11-22T05:34:39;99595.75;;;15.33;100.00
74524;BME280;63074;44.696;10.358;2023-11-22T05:37:06;99596.53;;;15.39;100.00
74524;BME280;63074;44.696;10.358;2023-11-22T05:39:32;99607.72;;;15.22;100.00
74524;BME280;63074;44.696;10.358;2023-11-22T05:41:59;99612.38;;;15.76;100.00
74524;BME280;63074;44.696;10.358;2023-11-22T05:44:25;99613.59;;;15.39;100.00
74524;BME280;63074;44.696;10.358;2023-11-22T05:46:52;99615.38;;;15.00;100.00
74524;BME280;63074;44.696;10.358;2023-11-22T05:49:20;99618.50;;;15.32;100.00
74524;BME280;63074;44.696;10.358;2023-11-22T05:51:46;99621.72;;;15.44;100.00
74524;BME280;63074;44.696;10.358;2023-11-22T05:54:12;99609.94;;;15.74;100.00
74524;BME280;63074;44.696;10.358;2023-11-22T05:56:39;99611.06;;;15.68;100.00
74524;BME280;63074;44.696;10.358;2023-11-22T05:59:06;99611.66;;;15.50;100.00
74524;BME280;63074;44.696;10.358;2023-11-22T06:01:32;99610.59;;;15.46;100.00
74524;BME280;63074;44.696;10.358;2023-11-22T06:03:59;99618.31;;;16.17;100.00
74524;BME280;63074;44.696;10.358;2023-11-22T06:06:25;99613.75;;;15.68;100.00
74524;BME280;63074;44.696;10.358;2023-11-22T06:08:52;99623.72;;;16.17;100.00
74524;BME280;63074;44.696;10.358;2023-11-22T06:11:19;99627.19;;;15.88;100.00
74524;BME280;63074;44.696;10.358;2023-11-22T06:13:46;99636.31;;;12.93;100.00
74524;BME280;63074;44.696;10.358;2023-11-22T06:16:13;99645.53;;;15.58;100.00
74524;BME280;63074;44.696;10.358;2023-11-22T06:18:39;99645.75;;;15.61;100.00
74524;BME280;63074;44.696;10.358;2023-11-22T06:21:10;99651.97;;;15.67;100.00
74524;BME280;63074;44.696;10.358;2023-11-22T06:23:36;99647.53;;;15.11;100.00
74524;BME280;63074;44.696;10.358;2023-11-22T06:26:03;99653.22;;;15.10;100.00
74524;BME280;63074;44.696;10.358;2023-11-22T06:28:29;99654.31;;;15.09;100.00
74524;BME280;63074;44.696;10.358;2023-11-22T06:30:55;99655.72;;;14.86;100.00
74524;BME280;63074;44.696;10.358;2023-11-22T06:33:21;99653.88;;;15.61;100.00
74524;BME280;63074;44.696;10.358;2023-11-22T06:35:47;99659.19;;;15.02;100.00
74524;BME280;63074;44.696;10.358;2023-11-22T06:38:14;99659.94;;;15.28;100.00
74524;BME280;63074;44.696;10.358;2023-11-22T06:40:40;99661.81;;;15.32;100.00
74524;BME280;63074;44.696;10.358;2023-11-22T06:43:06;99674.44;;;15.62;100.00
74524;BME280;63074;44.696;10.358;2023-11-22T06:45:32;99675.06;;;15.34;100.00
74524;BME280;63074;44.696;10.358;2023-11-22T06:47:59;99673.72;;;15.36;100.00
74524;BME280;63074;44.696;10.358;2023-11-22T06:50:25;99683.28;;;14.78;100.00
74524;BME280;63074;44.696;10.358;2023-11-22T06:52:51;99700.38;;;14.68;100.00
74524;BME280;63074;44.696;10.358;2023-11-22T06:55:19;99693.03;;;14.74;100.00
74524;BME280;63074;44.696;10.358;2023-11-22T06:57:45;99698.66;;;15.18;100.00
74524;BME280;63074;44.696;10.358;2023-11-22T07:00:12;99696.56;;;15.00;100.00
74524;BME280;63074;44.696;10.358;2023-11-22T07:02:38;99709.00;;;14.75;100.00
74524;BME280;63074;44.696;10.358;2023-11-22T07:05:06;99704.09;;;15.08;100.00
74524;BME280;63074;44.696;10.358;2023-11-22T07:07:38;99708.31;;;15.54;100.00
74524;BME280;63074;44.696;10.358;2023-11-22T07:10:05;99722.50;;;15.11;100.00
74524;BME280;63074;44.696;10.358;2023-11-22T07:12:35;99726.56;;;15.13;100.00
74524;BME280;63074;44.696;10.358;2023-11-22T07:15:01;99722.97;;;15.59;100.00
74524;BME280;63074;44.696;10.358;2023-11-22T07:17:28;99724.91;;;16.12;100.00
74524;BME280;63074;44.696;10.358;2023-11-22T07:19:55;99725.34;;;15.75;100.00
74524;BME280;63074;44.696;10.358;2023-11-22T07:22:21;99732.41;;;15.66;100.00
74524;BME280;63074;44.696;10.358;2023-11-22T07:24:50;99739.44;;;15.72;100.00
74524;BME280;63074;44.696;10.358;2023-11-22T07:27:20;99747.84;;;15.71;100.00
74524;BME280;63074;44.696;10.358;2023-11-22T07:29:48;99749.19;;;15.73;100.00
74524;BME280;63074;44.696;10.358;2023-11-22T07:32:14;99757.47;;;16.02;100.00
74524;BME280;63074;44.696;10.358;2023-11-22T07:34:41;99766.38;;;16.13;100.00
74524;BME280;63074;44.696;10.358;2023-11-22T07:37:08;99770.94;;;16.62;100.00
74524;BME280;63074;44.696;10.358;2023-11-22T07:39:35;99770.13;;;16.17;100.00
74524;BME280;63074;44.696;10.358;2023-11-22T07:42:02;99782.75;;;15.82;100.00
74524;BME280;63074;44.696;10.358;2023-11-22T07:44:28;99784.91;;;15.85;100.00
74524;BME280;63074;44.696;10.358;2023-11-22T07:46:59;99789.81;;;15.78;100.00
74524;BME280;63074;44.696;10.358;2023-11-22T07:49:26;99797.88;;;15.94;100.00
74524;BME280;63074;44.696;10.358;2023-11-22T07:51:52;99804.91;;;16.00;100.00
74524;BME280;63074;44.696;10.358;2023-11-22T07:54:21;99811.91;;;16.70;100.00
74524;BME280;63074;44.696;10.358;2023-11-22T07:56:51;99810.88;;;17.00;100.00
74524;BME280;63074;44.696;10.358;2023-11-22T07:59:21;99805.91;;;16.73;100.00
74524;BME280;63074;44.696;10.358;2023-11-22T08:01:47;99811.28;;;17.12;100.00
74524;BME280;63074;44.696;10.358;2023-11-22T08:04:16;99813.44;;;16.81;100.00
74524;BME280;63074;44.696;10.358;2023-11-22T08:06:43;99814.50;;;17.19;100.00
74524;BME280;63074;44.696;10.358;2023-11-22T08:09:09;99824.47;;;17.58;100.00
74524;BME280;63074;44.696;10.358;2023-11-22T08:11:36;99816.94;;;18.03;100.00
74524;BME280;63074;44.696;10.358;2023-11-22T08:14:05;99818.66;;;17.70;100.00
74524;BME280;63074;44.696;10.358;2023-11-22T08:16:31;99825.56;;;17.57;100.00
74524;BME280;63074;44.696;10.358;2023-11-22T08:18:58;99823.97;;;17.85;100.00
74524;BME280;63074;44.696;10.358;2023-11-22T08:21:24;99833.44;;;17.59;100.00
74524;BME280;63074;44.696;10.358;2023-11-22T08:23:51;99831.69;;;17.73;100.00
74524;BME280;63074;44.696;10.358;2023-11-22T08:26:19;99837.81;;;17.54;100.00
74524;BME280;63074;44.696;10.358;2023-11-22T08:28:45;99840.22;;;17.61;100.00
74524;BME280;63074;44.696;10.358;2023-11-22T08:31:11;99836.34;;;17.67;100.00
74524;BME280;63074;44.696;10.358;2023-11-22T08:33:38;99843.00;;;17.51;100.00
74524;BME280;63074;44.696;10.358;2023-11-22T08:36:06;99846.09;;;17.73;100.00
74524;BME280;63074;44.696;10.358;2023-11-22T08:38:34;99849.56;;;17.79;100.00
74524;BME280;63074;44.696;10.358;2023-11-22T08:41:04;99845.59;;;18.19;100.00
74524;BME280;63074;44.696;10.358;2023-11-22T08:43:32;99855.25;;;18.06;100.00
74524;BME280;63074;44.696;10.358;2023-11-22T08:46:01;99850.50;;;18.17;100.00
74524;BME280;63074;44.696;10.358;2023-11-22T08:48:30;99846.84;;;17.79;100.00
74524;BME280;63074;44.696;10.358;2023-11-22T08:50:57;99852.25;;;17.50;100.00
74524;BME280;63074;44.696;10.358;2023-11-22T08:53:24;99855.09;;;17.69;100.00
74524;BME280;63074;44.696;10.358;2023-11-22T08:55:50;99870.66;;;17.58;100.00
74524;BME280;63074;44.696;10.358;2023-11-22T08:58:18;99874.56;;;17.47;100.00
74524;BME280;63074;44.696;10.358;2023-11-22T09:00:44;99873.41;;;18.11;100.00
74524;BME280;63074;44.696;10.358;2023-11-22T09:03:11;99887.94;;;17.72;100.00
74524;BME280;63074;44.696;10.358;2023-11-22T09:05:39;99886.84;;;17.73;100.00
74524;BME280;63074;44.696;10.358;2023-11-22T09:08:05;99890.25;;;18.13;100.00
74524;BME280;63074;44.696;10.358;2023-11-22T09:10:32;99902.28;;;17.78;100.00
74524;BME280;63074;44.696;10.358;2023-11-22T09:12:58;99898.41;;;17.55;100.00
74524;BME280;63074;44.696;10.358;2023-11-22T09:15:27;99895.50;;;18.04;100.00
74524;BME280;63074;44.696;10.358;2023-11-22T09:17:55;99892.97;;;18.37;100.00
74524;BME280;63074;44.696;10.358;2023-11-22T09:20:22;99900.94;;;18.76;100.00
74524;BME280;63074;44.696;10.358;2023-11-22T09:22:51;99915.81;;;18.12;100.00
74524;BME280;63074;44.696;10.358;2023-11-22T09:25:25;99902.84;;;18.04;100.00
74524;BME280;63074;44.696;10.358;2023-11-22T09:27:53;99909.25;;;18.84;100.00
74524;BME280;63074;44.696;10.358;2023-11-22T09:30:24;99905.22;;;18.58;100.00
74524;BME280;63074;44.696;10.358;2023-11-22T09:33:15;99903.13;;;18.26;100.00
74524;BME280;63074;44.696;10.358;2023-11-22T09:35:43;99909.69;;;18.73;100.00
74524;BME280;63074;44.696;10.358;2023-11-22T09:38:10;99908.94;;;18.67;100.00
74524;BME280;63074;44.696;10.358;2023-11-22T09:40:46;99927.94;;;16.09;100.00
74524;BME280;63074;44.696;10.358;2023-11-22T09:43:14;99923.66;;;15.57;100.00
74524;BME280;63074;44.696;10.358;2023-11-22T09:45:44;99916.31;;;18.19;100.00
74524;BME280;63074;44.696;10.358;2023-11-22T09:48:21;99911.44;;;18.82;100.00
74524;BME280;63074;44.696;10.358;2023-11-22T09:53:31;99927.56;;;19.16;100.00
74524;BME280;63074;44.696;10.358;2023-11-22T09:55:58;99918.66;;;19.11;100.00
74524;BME280;63074;44.696;10.358;2023-11-22T09:58:24;99928.59;;;19.20;100.00
74524;BME280;63074;44.696;10.358;2023-11-22T10:00:52;99925.44;;;19.13;100.00
74524;BME280;63074;44.696;10.358;2023-11-22T10:03:19;99930.81;;;20.02;100.00
74524;BME280;63074;44.696;10.358;2023-11-22T10:05:46;99931.41;;;19.99;100.00
74524;BME280;63074;44.696;10.358;2023-11-22T10:08:13;99927.50;;;19.92;100.00
74524;BME280;63074;44.696;10.358;2023-11-22T10:10:40;99924.78;;;20.05;100.00
74524;BME280;63074;44.696;10.358;2023-11-22T10:13:08;99923.81;;;19.31;100.00
74524;BME280;63074;44.696;10.358;2023-11-22T10:15:35;99928.59;;;19.58;100.00
74524;BME280;63074;44.696;10.358;2023-11-22T10:18:02;99933.63;;;19.13;100.00
74524;BME280;63074;44.696;10.358;2023-11-22T10:20:37;99940.22;;;19.45;100.00
74524;BME280;63074;44.696;10.358;2023-11-22T10:23:03;99940.31;;;19.21;100.00
74524;BME280;63074;44.696;10.358;2023-11-22T10:25:35;99948.88;;;19.33;100.00
74524;BME280;63074;44.696;10.358;2023-11-22T10:28:01;99945.47;;;19.22;100.00
74524;BME280;63074;44.696;10.358;2023-11-22T10:30:28;99941.94;;;19.22;100.00
74524;BME280;63074;44.696;10.358;2023-11-22T10:32:56;99946.47;;;18.89;100.00
74524;BME280;63074;44.696;10.358;2023-11-22T10:35:23;99945.91;;;19.11;100.00
74524;BME280;63074;44.696;10.358;2023-11-22T10:37:49;99946.94;;;19.34;100.00
74524;BME280;63074;44.696;10.358;2023-11-22T10:40:15;99942.38;;;19.29;100.00
74524;BME280;63074;44.696;10.358;2023-11-22T10:42:42;99950.41;;;19.58;94.95
74524;BME280;63074;44.696;10.358;2023-11-22T10:45:09;99954.09;;;20.13;93.89
74524;BME280;63074;44.696;10.358;2023-11-22T10:47:39;99951.63;;;20.72;87.83
74524;BME280;63074;44.696;10.358;2023-11-22T10:50:08;99954.25;;;19.89;92.23
74524;BME280;63074;44.696;10.358;2023-11-22T10:52:36;99947.00;;;19.47;98.49
74524;BME280;63074;44.696;10.358;2023-11-22T10:55:06;99951.34;;;20.27;87.24
74524;BME280;63074;44.696;10.358;2023-11-22T10:57:37;99944.38;;;20.07;87.37
74524;BME280;63074;44.696;10.358;2023-11-22T11:00:06;99952.94;;;20.01;94.26
74524;BME280;63074;44.696;10.358;2023-11-22T11:02:43;99962.13;;;20.37;98.59
74524;BME280;63074;44.696;10.358;2023-11-22T11:05:20;99960.22;;;20.05;99.85
74524;BME280;63074;44.696;10.358;2023-11-22T11:08:00;99960.00;;;20.62;97.97
74524;BME280;63074;44.696;10.358;2023-11-22T11:10:28;99959.25;;;20.29;92.90
74524;BME280;63074;44.696;10.358;2023-11-22T11:12:56;99968.19;;;20.62;94.96
74524;BME280;63074;44.696;10.358;2023-11-22T11:15:23;99968.59;;;20.41;90.87
74524;BME280;63074;44.696;10.358;2023-11-22T11:17:50;99961.19;;;20.83;84.75
74524;BME280;63074;44.696;10.358;2023-11-22T11:20:17;99971.72;;;20.89;88.11
74524;BME280;63074;44.696;10.358;2023-11-22T11:22:47;99977.84;;;20.27;88.42
74524;BME280;63074;44.696;10.358;2023-11-22T11:25:15;99962.44;;;21.13;85.52
74524;BME280;63074;44.696;10.358;2023-11-22T11:27:55;99963.97;;;21.77;88.33
74524;BME280;63074;44.696;10.358;2023-11-22T11:30:42;99974.91;;;21.77;89.25
74524;BME280;63074;44.696;10.358;2023-11-22T11:33:12;99986.16;;;20.90;92.17
74524;BME280;63074;44.696;10.358;2023-11-22T11:35:48;99980.81;;;21.48;86.74
74524;BME280;63074;44.696;10.358;2023-11-22T11:38:17;99986.03;;;19.80;96.78
74524;BME280;63074;44.696;10.358;2023-11-22T11:40:51;99978.72;;;20.22;99.27
74524;BME280;63074;44.696;10.358;2023-11-22T11:43:40;99986.97;;;19.89;90.85
74524;BME280;63074;44.696;10.358;2023-11-22T11:46:10;99993.25;;;20.91;91.16
74524;BME280;63074;44.696;10.358;2023-11-22T11:48:36;99995.38;;;20.39;88.69
74524;BME280;63074;44.696;10.358;2023-11-22T11:51:03;99997.38;;;21.30;89.74
74524;BME280;63074;44.696;10.358;2023-11-22T11:53:29;99996.38;;;22.06;92.71
74524;BME280;63074;44.696;10.358;2023-11-22T11:55:58;99995.16;;;22.52;82.88
74524;BME280;63074;44.696;10.358;2023-11-22T11:58:24;99994.75;;;23.50;85.73
74524;BME280;63074;44.696;10.358;2023-11-22T12:00:55;99997.25;;;24.24;80.91
74524;BME280;63074;44.696;10.358;2023-11-22T12:03:22;99991.91;;;24.36;72.59
74524;BME280;63074;44.696;10.358;2023-11-22T12:05:48;99993.13;;;26.31;62.53
74524;BME280;63074;44.696;10.358;2023-11-22T12:08:15;100013.66;;;34.40;41.74
74524;BME280;63074;44.696;10.358;2023-11-22T12:10:44;100027.06;;;38.57;32.71
74524;BME280;63074;44.696;10.358;2023-11-22T12:13:18;100032.41;;;41.14;28.77
74524;BME280;63074;44.696;10.358;2023-11-22T12:15:44;100028.28;;;40.22;27.83
74524;BME280;63074;44.696;10.358;2023-11-22T12:18:11;100029.84;;;41.49;26.82
74524;BME280;63074;44.696;10.358;2023-11-22T12:20:38;100035.44;;;40.59;26.71
74524;BME280;63074;44.696;10.358;2023-11-22T12:23:04;100037.09;;;41.50;26.09
74524;BME280;63074;44.696;10.358;2023-11-22T12:25:33;100042.13;;;41.42;25.33
74524;BME280;63074;44.696;10.358;2023-11-22T12:27:59;100047.59;;;43.27;24.90
74524;BME280;63074;44.696;10.358;2023-11-22T12:30:37;100040.00;;;41.75;24.66
74524;BME280;63074;44.696;10.358;2023-11-22T12:33:06;100054.22;;;43.55;24.04
74524;BME280;63074;44.696;10.358;2023-11-22T12:35:36;100054.16;;;42.64;23.67
74524;BME280;63074;44.696;10.358;2023-11-22T12:38:04;100047.09;;;44.16;23.07
74524;BME280;63074;44.696;10.358;2023-11-22T12:40:31;100050.84;;;44.22;23.05
74524;BME280;63074;44.696;10.358;2023-11-22T12:42:59;100052.28;;;43.65;23.29
74524;BME280;63074;44.696;10.358;2023-11-22T12:45:28;100051.00;;;42.50;24.56